Terminal Aerodrome Forecast
Issued by NWS Wilmington, OH

Current Version | Previous Version | Graphics & Text | Print | Product List | Glossary On
Versions: 1 2 3 4 5 6 7 8 9 10 11 12 13 14 15
000
FTUS41 KILN 161026 AAA
TAFDAY
TAF AMD
KDAY 161026Z 1610/1706 32008KT P6SM BKN035
     FM161500 32010KT P6SM BKN040
     FM170100 VRB03KT P6SM SKC=

USA.gov is the U.S. government's official web portal to all federal, state and local government web resources and services.